Time;durP1;ratioP1;P1;durP2;ratioP2;P2;SDS_P1;SDS_P2;PMS_P1;PMS_P2;Temp;Humidity;BMP_temperature;BMP_pressure;BME280_temperature;BME280_humidity;BME280_pressure;Samples;Min_cycle;Max_cycle;Signal;HPM_P1;HPM_P2
2022/01/14 00:00:33;;;;;;;79.78;27.13;;;;;;;2.21;100.00;103772.28;5005740;28;20034;-62
2022/01/14 00:02:58;;;;;;;101.55;30.23;;;;;;;2.23;100.00;103771.22;5006602;28;20041;-61
2022/01/14 00:05:23;;;;;;;85.90;28.08;;;;;;;2.27;100.00;103774.59;5004282;28;20042;-62
2022/01/14 00:07:49;;;;;;;97.43;30.45;;;;;;;2.29;100.00;103778.94;5005862;28;20534;-62
2022/01/14 00:10:14;;;;;;;84.32;23.80;;;;;;;2.32;100.00;103773.28;5006455;28;20051;-62
2022/01/14 00:12:47;;;;;;;99.28;29.67;;;;;;;2.29;100.00;103768.09;5004826;28;20033;-62
2022/01/14 00:15:25;;;;;;;103.75;29.20;;;;;;;2.22;100.00;103768.59;5001118;28;20057;-62
2022/01/14 00:17:54;;;;;;;101.82;30.17;;;;;;;2.24;100.00;103758.53;5005753;28;20068;-62
2022/01/14 00:20:21;;;;;;;136.68;35.00;;;;;;;2.20;100.00;103757.00;5003885;28;20033;-61
2022/01/14 00:22:47;;;;;;;119.43;32.72;;;;;;;2.19;100.00;103747.13;5006233;28;20377;-62
2022/01/14 00:33:09;;;;;;;78.63;25.60;;;;;;;2.13;100.00;103744.81;5008487;28;20111;-62
2022/01/14 00:35:40;;;;;;;81.85;25.45;;;;;;;2.11;100.00;103744.06;5024792;28;20029;-62
2022/01/14 00:38:06;;;;;;;81.50;25.95;;;;;;;2.11;100.00;103744.94;5008860;28;20025;-62
2022/01/14 00:40:32;;;;;;;75.07;26.42;;;;;;;2.12;100.00;103738.53;4996623;28;20092;-62
2022/01/14 00:42:57;;;;;;;85.75;30.33;;;;;;;2.13;100.00;103736.69;5006013;28;20021;-62
2022/01/14 00:45:23;;;;;;;91.50;27.65;;;;;;;2.13;100.00;103733.97;5005147;28;20036;-62
2022/01/14 00:47:48;;;;;;;106.93;27.75;;;;;;;2.12;100.00;103732.25;5003371;28;20034;-62
2022/01/14 00:50:15;;;;;;;113.68;27.02;;;;;;;2.06;100.00;103718.13;5004006;28;20483;-62
2022/01/14 00:52:42;;;;;;;88.93;25.75;;;;;;;2.05;100.00;103720.97;5005454;28;20075;-62
2022/01/14 00:55:12;;;;;;;114.90;29.00;;;;;;;2.01;100.00;103720.28;5005235;28;20444;-62
2022/01/14 01:00:25;;;;;;;97.25;27.65;;;;;;;1.98;100.00;103712.38;5004587;28;20115;-61
2022/01/14 01:02:50;;;;;;;;;;;;;;;2.01;100.00;103709.44;5005395;28;20030;-62
2022/01/14 01:05:16;;;;;;;91.00;26.33;;;;;;;2.00;100.00;103702.28;5003322;28;19924;-62
2022/01/14 01:07:45;;;;;;;106.07;26.85;;;;;;;1.95;100.00;103698.16;5004311;28;20469;-62
2022/01/14 01:10:11;;;;;;;100.88;26.65;;;;;;;1.93;100.00;103701.00;5005185;28;20032;-62
2022/01/14 01:15:09;;;;;;;82.28;24.75;;;;;;;1.89;100.00;103694.03;5003876;28;20038;-62
2022/01/14 01:17:35;;;;;;;84.05;24.73;;;;;;;1.89;100.00;103693.16;5004833;28;20026;-62
2022/01/14 01:20:03;;;;;;;87.78;25.70;;;;;;;1.88;100.00;103688.72;5004539;28;20449;-62
2022/01/14 01:22:29;;;;;;;95.03;24.13;;;;;;;1.85;100.00;103692.50;5004427;28;20030;-62
2022/01/14 01:24:55;;;;;;;85.75;25.88;;;;;;;1.90;100.00;103694.91;5004526;28;20045;-61
2022/01/14 01:27:21;;;;;;;127.03;28.38;;;;;;;1.86;100.00;103699.66;5004249;28;20034;-62
2022/01/14 01:29:52;;;;;;;96.70;25.48;;;;;;;1.88;100.00;103692.31;5004180;28;20096;-62
2022/01/14 01:32:18;;;;;;;115.72;27.55;;;;;;;1.86;100.00;103702.34;5004532;28;20022;-62
2022/01/14 01:34:44;;;;;;;76.75;25.58;;;;;;;1.89;100.00;103691.31;5003696;28;20044;-62
2022/01/14 01:37:09;;;;;;;77.10;23.90;;;;;;;1.88;100.00;103702.28;5004374;28;20104;-62
2022/01/14 01:39:36;;;;;;;56.88;23.63;;;;;;;1.87;100.00;103701.38;5004650;28;20436;-61
2022/01/14 01:42:08;;;;;;;91.20;24.77;;;;;;;1.90;100.00;103692.19;5004094;28;20033;-62
2022/01/14 01:44:36;;;;;;;99.43;24.45;;;;;;;1.87;100.00;103686.97;5004301;28;20037;-62
2022/01/14 01:47:02;;;;;;;79.88;23.95;;;;;;;1.85;100.00;103703.34;5004755;28;20026;-63
2022/01/14 01:49:32;;;;;;;87.03;23.33;;;;;;;1.84;100.00;103696.19;5003935;28;20038;-62
2022/01/14 01:51:58;;;;;;;96.18;24.45;;;;;;;1.84;100.00;103688.06;5004162;28;20088;-62
2022/01/14 01:54:25;;;;;;;65.55;22.33;;;;;;;1.82;100.00;103698.09;5003750;28;20484;-61
2022/01/14 01:56:50;;;;;;;69.55;23.58;;;;;;;1.81;100.00;103682.81;5004028;28;20431;-62
2022/01/14 01:59:17;;;;;;;97.20;24.73;;;;;;;1.81;100.00;103690.97;5003415;28;20026;-62
2022/01/14 02:01:42;;;;;;;77.80;22.02;;;;;;;1.78;100.00;103693.88;5004280;28;20029;-62
2022/01/14 02:04:08;;;;;;;80.20;22.65;;;;;;;1.78;100.00;103697.47;5002640;28;20038;-62
2022/01/14 02:06:37;;;;;;;99.63;25.45;;;;;;;1.77;100.00;103697.53;5004038;28;20022;-62
2022/01/14 02:09:03;;;;;;;81.68;21.42;;;;;;;1.77;100.00;103701.16;4999586;28;20041;-62
2022/01/14 02:11:28;;;;;;;108.57;23.52;;;;;;;1.76;100.00;103685.84;5003717;28;20030;-61
2022/01/14 02:13:57;;;;;;;76.20;21.58;;;;;;;1.76;100.00;103672.28;5003546;28;20116;-62
2022/01/14 02:16:57;;;;;;;97.53;23.27;;;;;;;1.73;100.00;103672.53;5003391;28;20473;-62
2022/01/14 02:19:31;;;;;;;73.43;22.98;;;;;;;1.72;100.00;103669.91;5002485;28;20042;-62
2022/01/14 02:22:12;;;;;;;77.80;21.77;;;;;;;1.70;100.00;103667.28;5004336;28;20378;-61
2022/01/14 02:27:04;;;;;;;65.45;23.35;;;;;;;1.70;100.00;103678.13;5003511;28;20045;-62
2022/01/14 02:29:30;;;;;;;86.30;22.95;;;;;;;1.72;100.00;103667.19;5004117;28;20037;-62
2022/01/14 02:31:55;;;;;;;69.65;22.88;;;;;;;1.73;100.00;103667.09;5003819;28;20041;-61
2022/01/14 02:34:21;;;;;;;74.38;24.55;;;;;;;1.72;100.00;103656.34;5002954;28;20034;-62
2022/01/14 02:36:48;;;;;;;64.68;22.58;;;;;;;1.73;100.00;103666.25;5003326;28;20032;-62
2022/01/14 02:39:15;;;;;;;78.50;21.05;;;;;;;1.74;100.00;103670.69;5002669;28;20055;-61
2022/01/14 02:41:42;;;;;;;80.18;22.23;;;;;;;1.72;100.00;103670.75;5003736;28;20041;-62
2022/01/14 02:44:11;;;;;;;61.58;20.50;;;;;;;1.70;100.00;103667.28;5003231;28;20503;-62
2022/01/14 02:46:43;;;;;;;70.35;23.10;;;;;;;1.73;100.00;103666.25;5002112;28;20084;-62
2022/01/14 02:49:08;;;;;;;65.28;22.00;;;;;;;1.75;100.00;103664.28;5002599;28;20504;-62
2022/01/14 02:51:34;;;;;;;67.45;21.33;;;;;;;1.72;100.00;103659.91;4996503;28;20030;-62
2022/01/14 02:54:12;;;;;;;58.88;21.65;;;;;;;1.69;100.00;103656.56;4988405;28;20030;-62
2022/01/14 02:56:38;;;;;;;;;;;;;;;1.75;100.00;103659.72;4988361;28;20027;-62
2022/01/14 02:59:03;;;;;;;63.63;20.85;;;;;;;1.68;100.00;103653.00;5007406;28;19928;-62
2022/01/14 03:01:29;;;;;;;67.40;20.90;;;;;;;1.67;100.00;103655.78;5007481;28;20056;-62
2022/01/14 03:03:58;;;;;;;77.68;23.40;;;;;;;1.67;100.00;103667.50;5010068;28;20017;-62
2022/01/14 03:06:25;;;;;;;74.93;22.83;;;;;;;1.65;100.00;103664.03;5024949;28;20041;-61
2022/01/14 03:08:50;;;;;;;63.50;21.20;;;;;;;1.67;100.00;103661.22;5006757;28;20041;-61
2022/01/14 03:11:28;;;;;;;63.83;21.17;;;;;;;1.71;100.00;103651.91;5005936;28;20034;-62
2022/01/14 03:13:53;;;;;;;72.05;21.95;;;;;;;1.68;100.00;103652.13;5006908;28;20075;-61
2022/01/14 03:16:20;;;;;;;84.35;22.88;;;;;;;1.65;100.00;103658.63;5006052;28;20603;-62
2022/01/14 03:18:49;;;;;;;63.22;19.17;;;;;;;1.68;100.00;103657.56;5006552;28;20034;-62
2022/01/14 03:21:17;;;;;;;79.32;22.80;;;;;;;1.67;100.00;103661.22;5005300;28;20026;-62
2022/01/14 03:23:47;;;;;;;79.40;20.27;;;;;;;1.65;100.00;103655.91;5007071;28;20030;-62
2022/01/14 03:26:14;;;;;;;80.65;20.25;;;;;;;1.61;100.00;103659.78;5006144;28;20048;-62
2022/01/14 03:28:40;;;;;;;60.30;20.23;;;;;;;1.63;100.00;103648.88;4987317;28;20528;-62
2022/01/14 03:31:07;;;;;;;71.40;20.42;;;;;;;1.63;100.00;103648.88;4987127;28;20270;-62
2022/01/14 03:33:32;;;;;;;65.28;18.88;;;;;;;1.65;100.00;103652.31;5006248;28;20030;-62
2022/01/14 03:35:58;;;;;;;85.95;21.20;;;;;;;1.63;100.00;103660.56;5005176;28;20499;-61
2022/01/14 03:38:23;;;;;;;69.10;18.88;;;;;;;1.62;100.00;103658.81;5006754;28;20148;-62
2022/01/14 03:40:48;;;;;;;71.82;23.08;;;;;;;1.62;100.00;103641.69;5005984;28;20034;-62
2022/01/14 03:43:13;;;;;;;81.90;19.13;;;;;;;1.62;100.00;103647.09;5006412;28;20025;-62
2022/01/14 03:45:39;;;;;;;85.00;21.98;;;;;;;1.60;100.00;103649.94;5006279;28;20030;-61
2022/01/14 03:48:06;;;;;;;94.65;22.65;;;;;;;1.63;100.00;103652.44;5006431;28;20520;-62
2022/01/14 03:50:32;;;;;;;80.25;19.77;;;;;;;1.63;100.00;103643.44;5005664;28;20152;-62
2022/01/14 03:52:57;;;;;;;73.82;20.27;;;;;;;1.63;100.00;103644.31;5006811;28;20463;-61
2022/01/14 03:55:22;;;;;;;87.45;20.60;;;;;;;1.65;100.00;103646.91;5006329;28;20026;-62
2022/01/14 03:57:48;;;;;;;69.25;19.52;;;;;;;1.61;100.00;103645.38;5005893;28;20032;-61
2022/01/14 04:00:14;;;;;;;76.45;20.48;;;;;;;1.63;100.00;103638.03;5004709;28;20129;-61
2022/01/14 04:02:39;;;;;;;90.80;19.75;;;;;;;1.60;100.00;103635.50;5006150;28;20040;-62
2022/01/14 04:05:05;;;;;;;90.13;22.10;;;;;;;1.58;100.00;103634.75;5005255;28;20100;-62
2022/01/14 04:07:30;;;;;;;89.80;19.83;;;;;;;1.55;100.00;103639.41;5006195;28;20032;-62
2022/01/14 04:09:55;;;;;;;93.05;22.75;;;;;;;1.54;100.00;103634.09;5006190;28;20021;-61
2022/01/14 04:12:33;;;;;;;63.10;19.38;;;;;;;1.54;100.00;103631.38;5005877;28;20030;-62
2022/01/14 04:17:23;;;;;;;77.50;20.45;;;;;;;1.51;100.00;103623.44;5006555;28;20117;-62
2022/01/14 04:19:48;;;;;;;88.30;20.70;;;;;;;1.50;100.00;103628.00;5005178;28;20064;-61
2022/01/14 04:22:14;;;;;;;67.38;19.17;;;;;;;1.49;100.00;103628.13;5005294;28;20029;-62
2022/01/14 04:24:39;;;;;;;71.00;19.90;;;;;;;1.48;100.00;103627.25;5006159;28;20041;-62
2022/01/14 04:27:04;;;;;;;88.30;20.42;;;;;;;1.48;100.00;103626.38;5005596;28;20029;-62
2022/01/14 04:29:32;;;;;;;84.72;21.17;;;;;;;1.46;100.00;103612.94;5006684;28;20034;-62
2022/01/14 04:31:57;;;;;;;85.82;21.13;;;;;;;1.46;100.00;103633.72;5006112;28;20030;-61
2022/01/14 04:34:22;;;;;;;67.70;18.63;;;;;;;1.43;100.00;103629.41;5004552;28;20036;-62
2022/01/14 04:36:48;;;;;;;90.05;20.38;;;;;;;1.41;100.00;103622.34;5005426;28;20038;-62
2022/01/14 04:39:13;;;;;;;78.57;19.70;;;;;;;1.42;100.00;103626.78;5005486;28;20377;-62
2022/01/14 04:41:38;;;;;;;77.68;20.52;;;;;;;1.36;100.00;103627.19;5005191;28;20465;-62
2022/01/14 04:44:05;;;;;;;78.75;20.17;;;;;;;1.35;100.00;103614.63;5005403;28;20109;-62
2022/01/14 04:49:05;;;;;;;66.28;20.08;;;;;;;1.38;100.00;103620.72;5004703;28;20042;-62
2022/01/14 04:51:30;;;;;;;61.78;19.17;;;;;;;1.36;100.00;103614.50;5005708;28;20033;-62
2022/01/14 04:53:55;;;;;;;57.22;18.52;;;;;;;1.43;100.00;103601.47;5005166;28;20041;-61
2022/01/14 04:56:21;;;;;;;56.22;19.08;;;;;;;1.37;100.00;103593.72;5002470;28;20081;-62
2022/01/14 04:58:46;;;;;;;71.85;19.58;;;;;;;1.36;100.00;103594.69;5005671;28;20025;-62
2022/01/14 05:01:11;;;;;;;48.95;17.67;;;;;;;1.33;100.00;103594.91;4996568;28;20468;-62
2022/01/14 05:03:36;;;;;;;60.72;18.52;;;;;;;1.35;100.00;103588.41;4989022;28;20045;-62
2022/01/14 05:06:03;;;;;;;62.17;20.85;;;;;;;1.36;100.00;103575.75;5005097;28;20080;-62
2022/01/14 05:08:36;;;;;;;62.67;18.58;;;;;;;1.38;100.00;103571.09;5004451;28;20523;-62
2022/01/14 05:11:20;;;;;;;59.35;19.10;;;;;;;1.33;100.00;103571.41;5004322;28;20106;-63
2022/01/14 05:13:46;;;;;;;72.03;18.98;;;;;;;1.32;100.00;103569.69;5005048;28;20084;-62
2022/01/14 05:16:11;;;;;;;65.07;19.80;;;;;;;1.36;100.00;103573.03;5005153;28;20516;-62
2022/01/14 05:18:38;;;;;;;70.43;20.23;;;;;;;1.34;100.00;103580.41;5001761;28;20034;-62
2022/01/14 05:21:04;;;;;;;77.18;18.90;;;;;;;1.30;100.00;103577.03;5001691;28;20036;-62
2022/01/14 05:23:29;;;;;;;63.33;17.30;;;;;;;1.27;100.00;103571.84;5004570;28;20101;-62
2022/01/14 05:25:55;;;;;;;54.22;17.55;;;;;;;1.27;100.00;103577.25;5004965;28;20434;-62
2022/01/14 05:28:20;;;;;;;64.15;17.67;;;;;;;1.26;100.00;103575.50;5005068;28;20024;-61
2022/01/14 05:30:45;;;;;;;60.13;18.67;;;;;;;1.24;100.00;103574.72;5004518;28;20039;-62
2022/01/14 05:33:11;;;;;;;58.13;18.35;;;;;;;1.23;100.00;103573.00;5004699;28;20036;-62
2022/01/14 05:35:36;;;;;;;64.50;18.50;;;;;;;1.27;100.00;103574.53;5003049;28;20033;-62
2022/01/14 05:38:01;;;;;;;62.75;17.77;;;;;;;1.23;100.00;103582.00;5004254;28;20683;-63
2022/01/14 05:40:28;;;;;;;54.78;17.38;;;;;;;1.25;100.00;103584.59;5004686;28;20382;-62
2022/01/14 05:42:53;;;;;;;49.83;19.08;;;;;;;1.23;100.00;103581.13;5004953;28;20087;-62
2022/01/14 05:45:19;;;;;;;50.00;19.23;;;;;;;1.21;100.00;103577.63;5004306;28;20022;-62
2022/01/14 05:47:45;;;;;;;46.90;18.35;;;;;;;1.22;100.00;103565.88;5004588;28;20111;-62
2022/01/14 05:50:13;;;;;;;57.47;18.95;;;;;;;1.22;100.00;103565.88;5002357;28;20030;-62
2022/01/14 05:52:40;;;;;;;42.40;18.23;;;;;;;1.24;100.00;103563.91;5003943;28;20030;-62
2022/01/14 05:55:06;;;;;;;59.95;18.92;;;;;;;1.25;100.00;103573.75;5004437;28;20026;-62
2022/01/14 05:57:34;;;;;;;65.72;20.73;;;;;;;1.20;100.00;103565.94;5004363;28;20061;-62
2022/01/14 05:59:59;;;;;;;;;;;;;;;1.23;100.00;103563.03;5005458;28;20061;-62
2022/01/14 06:02:24;;;;;;;60.47;19.10;;;;;;;1.16;100.00;103559.00;5004157;28;19949;-62
2022/01/14 06:04:50;;;;;;;64.70;21.50;;;;;;;1.15;100.00;103565.38;5001700;28;20074;-62
2022/01/14 06:07:15;;;;;;;60.55;19.70;;;;;;;1.19;100.00;103569.63;5002422;28;20077;-62
2022/01/14 06:09:40;;;;;;;69.18;19.80;;;;;;;1.14;100.00;103570.91;5004411;28;20034;-62
2022/01/14 06:12:06;;;;;;;59.00;19.63;;;;;;;1.10;100.00;103589.19;5003206;28;20029;-62
2022/01/14 06:14:31;;;;;;;57.58;18.88;;;;;;;1.11;100.00;103581.91;5004004;28;20022;-63
2022/01/14 06:16:58;;;;;;;53.03;19.05;;;;;;;1.14;100.00;103581.72;5004522;28;20504;-62
2022/01/14 06:19:27;;;;;;;72.40;18.58;;;;;;;1.10;100.00;103597.28;5003497;28;20362;-62
2022/01/14 06:21:52;;;;;;;65.03;17.98;;;;;;;1.10;100.00;103599.13;5003929;28;20030;-62
2022/01/14 06:24:17;;;;;;;57.13;18.70;;;;;;;1.10;100.00;103585.59;5003613;28;20420;-62
2022/01/14 06:26:42;;;;;;;71.28;20.63;;;;;;;1.10;100.00;103580.19;5002232;28;20038;-62
2022/01/14 06:29:08;;;;;;;52.63;19.42;;;;;;;1.09;100.00;103583.88;5003950;28;20450;-62
2022/01/14 06:31:34;;;;;;;71.13;20.10;;;;;;;1.05;100.00;103583.19;5005777;28;20080;-62
2022/01/14 06:34:00;;;;;;;54.20;19.15;;;;;;;1.04;100.00;103581.47;5007727;28;20520;-62
2022/01/14 06:36:25;;;;;;;74.78;19.50;;;;;;;1.03;100.00;103585.16;5007477;28;20083;-62
2022/01/14 06:38:51;;;;;;;62.03;19.75;;;;;;;1.00;100.00;103580.78;5008241;28;20030;-62
2022/01/14 06:41:16;;;;;;;82.88;22.42;;;;;;;1.00;100.00;103583.50;5007313;28;20026;-62
2022/01/14 06:43:41;;;;;;;56.03;21.25;;;;;;;0.99;100.00;103587.19;5007815;28;20032;-62
2022/01/14 06:46:07;;;;;;;69.63;21.00;;;;;;;1.00;100.00;103575.38;5007141;28;20056;-62
2022/01/14 06:48:33;;;;;;;58.55;19.48;;;;;;;0.98;100.00;103574.63;5007442;28;20030;-62
2022/01/14 06:50:59;;;;;;;73.50;22.50;;;;;;;0.98;100.00;103576.47;5008238;28;20022;-62
2022/01/14 06:53:24;;;;;;;83.78;25.35;;;;;;;0.97;100.00;103578.31;5007425;28;20029;-62
2022/01/14 06:55:49;;;;;;;66.43;22.38;;;;;;;0.97;100.00;103574.75;5006953;28;20080;-61
2022/01/14 06:58:15;;;;;;;56.13;21.08;;;;;;;0.97;100.00;103575.59;5007588;28;20025;-61
2022/01/14 07:00:40;;;;;;;65.13;23.92;;;;;;;0.97;100.00;103578.31;5007873;28;20587;-62
2022/01/14 07:03:05;;;;;;;82.35;22.83;;;;;;;0.96;100.00;103578.38;5007061;28;20034;-62
2022/01/14 07:05:31;;;;;;;86.07;20.90;;;;;;;0.91;100.00;103577.81;5006408;28;20524;-62
2022/01/14 07:07:56;;;;;;;74.18;18.63;;;;;;;0.90;100.00;103584.22;5008135;28;20026;-61
2022/01/14 07:10:21;;;;;;;74.25;19.30;;;;;;;0.88;100.00;103575.34;5006708;28;20025;-62
2022/01/14 07:12:48;;;;;;;96.57;20.65;;;;;;;0.87;100.00;103568.19;5006673;28;20033;-62
2022/01/14 07:15:15;;;;;;;74.80;20.35;;;;;;;0.86;100.00;103580.81;5007234;28;20032;-62
2022/01/14 07:17:42;;;;;;;73.95;19.40;;;;;;;0.84;100.00;103579.19;5007015;28;20018;-62
2022/01/14 07:20:12;;;;;;;54.67;18.83;;;;;;;0.83;100.00;103582.88;5006365;28;20021;-62
2022/01/14 07:22:42;;;;;;;78.50;21.65;;;;;;;0.83;100.00;103578.34;5007315;28;20030;-62
2022/01/14 07:25:08;;;;;;;62.60;19.25;;;;;;;0.82;100.00;103590.13;5006853;28;20033;-62
2022/01/14 07:27:34;;;;;;;78.65;19.98;;;;;;;0.80;100.00;103589.34;5006834;28;20054;-62
2022/01/14 07:29:59;;;;;;;66.28;19.67;;;;;;;0.79;100.00;103587.63;5007481;28;20068;-62
2022/01/14 07:32:25;;;;;;;104.82;21.00;;;;;;;0.74;100.00;103590.63;5006239;28;20042;-62
2022/01/14 07:34:50;;;;;;;73.18;18.35;;;;;;;0.71;100.00;103604.34;5006225;28;20088;-62
2022/01/14 07:37:16;;;;;;;82.32;18.27;;;;;;;0.68;100.00;103601.84;5006612;28;20491;-62
2022/01/14 07:39:42;;;;;;;79.45;18.23;;;;;;;0.70;100.00;103599.88;5005380;28;20539;-62
2022/01/14 07:42:08;;;;;;;82.05;19.25;;;;;;;0.69;100.00;103603.56;5005213;28;20033;-61
2022/01/14 07:44:33;;;;;;;73.50;21.65;;;;;;;0.69;100.00;103597.28;5006726;28;20022;-62
2022/01/14 07:46:59;;;;;;;92.60;22.65;;;;;;;0.67;100.00;103602.81;5006984;28;20125;-62
2022/01/14 07:49:25;;;;;;;53.88;18.60;;;;;;;0.74;100.00;103589.75;5002843;28;20030;-62
2022/01/14 07:51:50;;;;;;;76.68;18.13;;;;;;;0.75;100.00;103607.72;5004178;28;20041;-62
2022/01/14 07:54:16;;;;;;;84.10;19.27;;;;;;;0.75;100.00;103608.56;5005293;28;20037;-62
2022/01/14 07:56:45;;;;;;;88.57;19.38;;;;;;;0.75;100.00;103610.41;5005454;28;20026;-62
2022/01/14 07:59:12;;;;;;;58.03;17.50;;;;;;;0.78;100.00;103597.56;5005749;28;20100;-62
2022/01/14 08:01:38;;;;;;;103.22;20.83;;;;;;;0.79;100.00;103595.72;5005534;28;20440;-62
2022/01/14 08:04:06;;;;;;;71.25;19.40;;;;;;;0.77;100.00;103582.31;5003725;28;20050;-62
2022/01/14 08:06:33;;;;;;;;;;;;;;;0.92;100.00;103577.75;5004778;28;20030;-63
2022/01/14 08:08:59;;;;;;;67.10;16.80;;;;;;;0.80;100.00;103570.41;5005728;28;19913;-62
2022/01/14 08:11:27;;;;;;;70.15;19.30;;;;;;;0.80;100.00;103573.13;5004591;28;20424;-62
2022/01/14 08:13:53;;;;;;;77.65;19.52;;;;;;;0.80;100.00;103575.81;5005319;28;20444;-61
2022/01/14 08:16:18;;;;;;;69.25;17.35;;;;;;;0.78;100.00;103572.34;5005024;28;20054;-62
2022/01/14 08:18:43;;;;;;;82.95;18.40;;;;;;;0.77;100.00;103582.31;5004164;28;20064;-62
2022/01/14 08:21:09;;;;;;;74.63;19.52;;;;;;;0.74;100.00;103565.41;5004502;28;20030;-62
2022/01/14 08:23:34;;;;;;;77.57;19.40;;;;;;;0.74;100.00;103585.19;5005205;28;20446;-62
2022/01/14 08:26:00;;;;;;;52.45;18.73;;;;;;;0.78;100.00;103591.28;5002999;28;20428;-62
2022/01/14 08:28:26;;;;;;;92.45;19.27;;;;;;;0.78;100.00;103592.16;5004395;28;20041;-62
2022/01/14 08:30:51;;;;;;;98.93;20.13;;;;;;;0.83;100.00;103615.34;5002440;28;20931;-61
2022/01/14 08:33:17;;;;;;;69.82;19.27;;;;;;;0.85;100.00;103613.41;5002858;28;20036;-62
2022/01/14 08:35:43;;;;;;;86.43;22.83;;;;;;;0.86;100.00;103599.75;5003373;28;20026;-62
2022/01/14 08:38:08;;;;;;;89.82;20.77;;;;;;;0.86;100.00;103609.72;5002227;28;20061;-62
2022/01/14 08:40:34;;;;;;;91.22;21.25;;;;;;;0.86;100.00;103625.94;5003038;28;20168;-62
2022/01/14 08:43:00;;;;;;;90.43;22.63;;;;;;;0.84;100.00;103587.31;5004296;28;20041;-62
2022/01/14 08:45:25;;;;;;;99.10;21.77;;;;;;;0.86;100.00;103610.59;5002778;28;20080;-61
2022/01/14 08:47:52;;;;;;;77.85;22.02;;;;;;;0.88;100.00;103600.56;5004294;28;20480;-62
2022/01/14 08:50:23;;;;;;;69.60;21.55;;;;;;;0.93;100.00;103609.22;5002073;28;20028;-62
2022/01/14 08:52:49;;;;;;;86.65;21.80;;;;;;;0.98;100.00;103596.28;5002671;28;20033;-62
2022/01/14 08:55:16;;;;;;;74.80;20.60;;;;;;;0.97;100.00;103607.22;5003126;28;20431;-62
2022/01/14 08:57:43;;;;;;;84.93;22.83;;;;;;;1.00;100.00;103610.56;5004381;28;20017;-62
2022/01/14 09:00:09;;;;;;;79.15;21.45;;;;;;;1.09;100.00;103600.97;5004358;28;20049;-62
2022/01/14 09:02:35;;;;;;;56.65;21.38;;;;;;;1.17;100.00;103592.38;5001351;28;20449;-62
2022/01/14 09:05:00;;;;;;;83.05;21.20;;;;;;;1.23;100.00;103597.38;4984363;28;20038;-62
2022/01/14 09:07:28;;;;;;;62.15;21.42;;;;;;;1.32;100.00;103590.44;4997913;28;20040;-62
2022/01/14 09:09:54;;;;;;;73.97;20.63;;;;;;;1.41;100.00;103582.59;5004570;28;20069;-62
2022/01/14 09:12:20;;;;;;;80.28;20.00;;;;;;;1.42;100.00;103588.84;5003228;28;20033;-63
2022/01/14 09:14:45;;;;;;;84.15;19.90;;;;;;;1.42;100.00;103602.41;5004630;28;20022;-62
2022/01/14 09:17:10;;;;;;;84.43;20.27;;;;;;;1.41;100.00;103596.13;5003955;28;20036;-62
2022/01/14 09:19:36;;;;;;;65.55;19.17;;;;;;;1.43;100.00;103587.91;5002969;28;20183;-62
2022/01/14 09:22:02;;;;;;;73.95;19.95;;;;;;;1.43;100.00;103585.19;5004208;28;20029;-62
2022/01/14 09:24:27;;;;;;;70.25;19.75;;;;;;;1.46;100.00;103576.84;5004583;28;20024;-62
2022/01/14 09:26:52;;;;;;;61.42;18.65;;;;;;;1.46;100.00;103593.97;5001529;28;20416;-62
2022/01/14 09:29:19;;;;;;;77.35;20.63;;;;;;;1.45;100.00;103600.38;5003286;28;20041;-62
2022/01/14 09:31:44;;;;;;;62.55;19.13;;;;;;;1.44;100.00;103595.94;5003607;28;20080;-62
2022/01/14 09:34:10;;;;;;;64.63;18.95;;;;;;;1.49;100.00;103601.91;5003281;28;20516;-62
2022/01/14 09:36:35;;;;;;;75.07;19.73;;;;;;;1.49;100.00;103599.19;5002782;28;20022;-62
2022/01/14 09:39:00;;;;;;;55.60;19.67;;;;;;;1.50;100.00;103605.47;5003111;28;20048;-62
2022/01/14 09:41:26;;;;;;;63.05;20.48;;;;;;;1.51;100.00;103607.19;5002106;28;20028;-62
2022/01/14 09:43:53;;;;;;;59.63;20.55;;;;;;;1.53;100.00;103616.97;5003440;28;20139;-62
2022/01/14 09:46:19;;;;;;;75.40;20.75;;;;;;;1.55;100.00;103617.72;5002999;28;20022;-62
2022/01/14 09:48:48;;;;;;;67.28;20.80;;;;;;;1.60;100.00;103628.25;5002571;28;20060;-62
2022/01/14 09:51:13;;;;;;;61.45;20.63;;;;;;;1.65;100.00;103619.81;5002628;28;20437;-62
2022/01/14 09:53:38;;;;;;;64.00;20.60;;;;;;;1.67;100.00;103628.69;5003347;28;20061;-62
2022/01/14 09:56:04;;;;;;;71.07;20.23;;;;;;;1.70;100.00;103620.38;5002758;28;20117;-61
2022/01/14 09:58:36;;;;;;;59.08;20.17;;;;;;;1.74;100.00;103630.91;5003648;28;20018;-62
2022/01/14 10:01:13;;;;;;;67.85;21.05;;;;;;;1.79;100.00;103626.03;5003899;28;20459;-62
2022/01/14 10:03:53;;;;;;;58.50;21.83;;;;;;;1.85;100.00;103629.31;5003126;28;20057;-62
2022/01/14 10:06:39;;;;;;;55.50;21.20;;;;;;;1.88;100.00;103632.69;4962741;28;20416;-62
2022/01/14 10:09:09;;;;;;;45.33;20.65;;;;;;;1.90;100.00;103622.59;4961593;28;20121;-61
2022/01/14 10:11:35;;;;;;;52.22;20.13;;;;;;;1.90;100.00;103625.28;4964941;28;20031;-62
2022/01/14 10:14:20;;;;;;;55.40;21.08;;;;;;;1.93;100.00;103619.69;4965089;28;20064;-61
2022/01/14 10:16:52;;;;;;;42.50;21.83;;;;;;;1.98;100.00;103622.94;4964061;28;20042;-61
2022/01/14 10:19:23;;;;;;;40.25;21.52;;;;;;;1.99;100.00;103630.09;4963463;28;20093;-61
2022/01/14 10:21:49;;;;;;;48.88;20.75;;;;;;;2.03;100.00;103626.19;4963266;28;20382;-61
2022/01/14 10:24:14;;;;;;;49.75;23.30;;;;;;;2.03;100.00;103626.19;4964584;28;20030;-61
2022/01/14 10:26:48;;;;;;;50.80;21.27;;;;;;;2.04;100.00;103625.22;4963443;28;20109;-61
2022/01/14 10:29:13;;;;;;;54.67;20.42;;;;;;;2.02;100.00;103621.72;4963319;28;20023;-61
2022/01/14 10:31:39;;;;;;;46.55;20.77;;;;;;;2.03;100.00;103617.19;4964318;28;20494;-62
2022/01/14 10:34:14;;;;;;;44.53;21.00;;;;;;;2.04;100.00;103617.09;4963329;28;20034;-61
2022/01/14 10:36:45;;;;;;;43.40;21.00;;;;;;;2.11;100.00;103620.22;4962622;28;20462;-61
2022/01/14 10:39:24;;;;;;;37.67;18.58;;;;;;;2.15;100.00;103612.75;4961635;28;20035;-61
2022/01/14 10:41:51;;;;;;;41.28;21.50;;;;;;;2.18;100.00;103609.81;4961091;28;20034;-61
2022/01/14 10:44:32;;;;;;;43.20;21.92;;;;;;;2.25;100.00;103612.00;4961423;28;20113;-61
2022/01/14 10:47:24;;;;;;;42.08;22.88;;;;;;;2.30;100.00;103617.97;4957654;28;20023;-61
2022/01/14 10:49:58;;;;;;;43.28;23.15;;;;;;;2.30;100.00;103612.53;4962500;28;20039;-61
2022/01/14 10:52:26;;;;;;;41.05;22.73;;;;;;;2.33;100.00;103606.00;4963573;28;20340;-61
2022/01/14 10:55:00;;;;;;;40.30;22.00;;;;;;;2.34;100.00;103608.63;4953681;28;20046;-61
2022/01/14 10:57:28;;;;;;;45.42;24.63;;;;;;;2.35;100.00;103598.66;4962546;28;20650;-61
2022/01/14 11:00:14;;;;;;;42.58;24.42;;;;;;;2.44;100.00;103597.13;4953210;28;20099;-61
2022/01/14 11:02:48;;;;;;;43.13;22.10;;;;;;;2.52;100.00;103590.16;4946110;28;20079;-61
2022/01/14 11:05:17;;;;;;;45.42;24.92;;;;;;;2.58;100.00;103578.88;4975640;28;20394;-61
2022/01/14 11:07:47;;;;;;;46.22;24.85;;;;;;;2.57;100.00;103582.56;4982564;28;20377;-61
2022/01/14 11:10:23;;;;;;;50.55;27.25;;;;;;;2.59;100.00;103585.19;4992532;28;20229;-61
2022/01/14 11:12:50;;;;;;;46.67;25.92;;;;;;;2.58;100.00;103589.72;5002317;28;20032;-61
2022/01/14 11:15:16;;;;;;;41.83;25.50;;;;;;;2.60;100.00;103576.06;4990712;28;20030;-61
2022/01/14 11:17:43;;;;;;;47.13;26.17;;;;;;;2.67;100.00;103577.34;4984465;28;20527;-61
2022/01/14 11:20:10;;;;;;;43.63;23.88;;;;;;;2.69;100.00;103579.97;4996247;28;20061;-61
2022/01/14 11:25:20;;;;;;;47.88;25.52;;;;;;;2.79;100.00;103590.03;5000143;28;20152;-61
2022/01/14 11:27:58;;;;;;;43.97;23.58;;;;;;;2.82;100.00;103584.34;5005957;28;20105;-61
2022/01/14 11:30:36;;;;;;;45.55;25.85;;;;;;;2.84;100.00;103587.84;5000548;28;20018;-61
2022/01/14 11:33:03;;;;;;;42.60;25.88;;;;;;;2.80;100.00;103574.59;5005186;28;20120;-62